Date,TemperatureHighF,TemperatureAvgF,TemperatureLowF,DewpointHighF,DewpointAvgF,DewpointLowF,HumidityHigh,HumidityAvg,HumidityLow,PressureMaxIn,PressureMinIn,WindSpeedMaxMPH,WindSpeedAvgMPH,GustSpeedMaxMPH,PrecipitationSumIn
2013-1-1,25,20,12,16,8,0,71,59,45,30.06,29.91,0,0,0,0.00
2013-1-2,24,20,14,15,11,6,74,68,60,30.09,29.91,0,0,0,0.00
2013-1-3,26,22,14,22,14,5,84,73,63,30.03,29.91,0,0,0,0.00
2013-1-4,32,25,21,20,16,13,80,67,52,30.06,29.85,0,0,0,0.00
2013-1-5,33,24,17,27,18,13,90,76,58,30.15,29.91,0,0,0,0.00
2013-1-6,34,31,29,31,28,22,94,86,74,30.15,29.79,0,0,0,0.00
2013-1-7,41,29,25,22,19,16,80,66,43,30.27,30.00,0,0,0,0.00
2013-1-8,37,28,23,23,19,16,78,67,52,30.12,30.03,0,0,0,0.00
2013-1-9,47,34,26,30,23,18,87,65,43,30.30,29.88,0,0,0,0.00
2013-1-10,43,32,25,30,22,18,89,69,46,30.47,30.09,0,0,0,0.00
2013-1-11,49,40,33,48,39,30,98,97,89,30.09,29.65,0,0,0,0.00
2013-1-12,56,48,43,50,44,38,98,87,56,29.85,29.74,0,0,0,0.00
2013-1-13,45,36,28,38,34,27,98,95,70,29.94,29.68,0,0,0,0.00
2013-1-14,30,22,17,27,14,10,97,71,54,30.33,29.91,0,0,0,0.00
2013-1-15,36,22,13,22,12,8,87,66,45,30.30,30.06,0,0,0,0.00
2013-1-16,40,26,17,23,14,11,85,62,41,30.06,29.65,0,0,0,0.00
2013-1-17,37,26,14,25,14,-2,80,59,42,30.18,29.79,0,0,0,0.00
2013-1-18,32,22,10,15,7,-3,75,54,43,30.30,29.82,0,0,0,0.00
2013-1-19,44,38,31,29,23,15,65,55,46,29.82,29.44,0,0,0,0.00
2013-1-20,40,21,12,29,3,-4,65,46,40,30.03,29.41,0,0,0,0.00
2013-1-21,24,11,3,5,-5,-12,61,48,43,30.00,29.76,0,0,0,0.00
2013-1-22,14,3,-4,-2,-12,-18,49,49,49,30.09,29.94,0,0,0,0.00
2013-1-23,67,8,-3,3,-6,-18,56,52,49,30.12,29.91,0,0,0,0.00
2013-1-24,28,10,4,8,-5,-10,59,50,39,30.41,29.94,0,0,0,0.00
2013-1-25,22,15,9,10,2,-8,75,57,45,30.36,29.85,0,0,0,0.00
2013-1-26,30,20,14,15,10,5,81,66,48,30.30,29.85,0,0,0,0.00
2013-1-27,28,21,13,24,10,4,90,64,46,30.30,29.97,12,2,12,0.00
2013-1-28,40,34,27,40,33,24,98,97,90,30.00,29.71,4,4,4,0.00
2013-1-29,54,42,31,54,42,31,98,98,98,29.88,29.38,4,4,4,0.00
2013-1-30,55,47,31,54,46,28,98,98,89,29.38,28.97,4,4,4,0.00
2013-1-31,31,20,14,28,12,6,90,70,56,29.71,29.09,4,4,4,0.00
2013-2-1,20,13,8,8,3,-4,75,63,49,30.09,29.71,4,4,4,0.00
2013-2-2,22,14,7,13,4,-2,76,65,59,30.06,29.79,4,4,4,0.00
2013-2-3,23,12,4,9,2,-4,77,63,53,29.85,29.68,4,4,4,0.00
2013-2-4,22,16,8,12,6,-4,78,65,58,29.85,29.74,4,4,4,0.00
2013-2-5,34,20,10,22,12,5,89,74,45,29.82,29.62,4,4,4,0.00
2013-2-6,43,22,12,21,11,6,87,63,39,30.15,29.79,4,3,6,0.00
2013-2-7,35,28,23,20,16,11,75,60,52,30.15,29.76,3,3,3,0.00
2013-2-8,27,24,18,25,18,10,95,79,67,30.21,29.68,3,3,3,0.00
2013-2-9,42,20,8,22,9,1,86,64,39,30.33,30.12,4,4,4,0.00
2013-2-10,37,28,17,34,20,12,96,74,49,30.15,29.59,4,4,4,0.00
2013-2-11,40,34,30,40,28,20,98,77,55,29.71,29.44,4,4,4,0.00
2013-2-12,31,28,25,23,18,15,74,65,59,29.88,29.68,4,4,4,0.00
2013-2-13,37,28,24,20,17,16,74,63,48,29.79,29.59,4,4,4,0.00
2013-2-14,39,31,24,32,26,18,89,82,72,29.71,29.53,4,4,4,0.00
2013-2-15,32,25,20,24,12,6,75,57,43,30.03,29.68,4,4,4,0.00
2013-2-16,26,18,12,14,6,1,75,60,49,30.00,29.85,4,4,4,0.00
2013-2-17,29,14,6,10,0,-8,77,56,38,30.09,29.94,4,4,4,0.00
2013-2-18,40,27,10,27,11,-8,63,51,40,30.09,29.50,15,5,15,0.00
2013-2-19,40,27,16,38,20,4,98,75,58,29.79,29.29,6,6,6,0.00
2013-2-20,22,18,14,9,6,2,69,58,48,30.09,29.76,6,6,6,0.00
2013-2-21,25,18,15,14,7,4,80,62,46,30.24,30.09,9,4,9,0.00
2013-2-22,31,25,20,30,21,13,95,84,73,30.15,29.74,3,3,3,0.00
2013-2-23,34,28,22,30,19,14,95,70,52,29.79,29.74,3,3,3,0.00
2013-2-24,36,26,20,25,18,14,86,70,52,30.03,29.76,8,3,8,0.00
2013-2-25,44,29,20,26,17,14,87,62,41,30.12,29.97,2,2,2,0.00
2013-2-26,37,30,26,32,21,14,98,72,48,30.00,29.41,2,2,2,0.00
2013-2-27,35,33,32,34,32,31,98,98,96,29.50,29.32,2,2,2,0.00
2013-2-28,35,31,27,33,28,21,98,87,73,29.85,29.44,2,2,2,0.00
2013-3-1,27,24,22,22,17,15,82,75,70,30.09,29.82,2,1,2,0.00
2013-3-2,25,22,20,17,14,11,80,72,62,30.03,29.97,8,2,8,0.00
2013-3-3,37,22,14,16,10,7,76,62,41,30.03,29.94,10,2,10,0.00
2013-3-4,42,22,11,18,8,2,77,56,39,30.09,29.97,6,2,6,0.00
2013-3-5,43,26,16,20,14,5,81,62,39,30.09,29.79,1,1,1,0.00
2013-3-6,46,32,23,27,22,17,83,68,42,30.18,29.82,1,1,1,0.00
2013-3-7,34,30,24,29,22,12,90,71,56,30.36,30.15,1,1,1,0.00
2013-3-8,49,31,18,25,17,11,79,57,37,30.44,30.33,6,2,6,0.00
2013-3-9,43,34,25,27,23,20,85,64,44,30.39,29.97,2,2,2,0.00
2013-3-10,59,47,35,36,30,26,69,53,36,30.00,29.74,2,2,2,0.00
2013-3-11,51,46,35,47,40,31,98,83,47,29.76,29.41,2,2,2,0.00
2013-3-12,38,33,28,31,25,17,89,74,56,29.85,29.62,4,4,4,0.00
2013-3-13,31,27,22,24,15,7,84,62,44,30.15,29.79,4,4,4,0.00
2013-3-14,44,28,19,20,11,7,69,50,37,30.24,29.97,4,4,4,0.00
2013-3-15,38,32,27,29,23,12,89,70,49,30.03,29.79,4,3,4,0.00
2013-3-16,34,27,22,28,20,12,89,74,53,30.00,29.74,3,3,3,0.00
2013-3-17,40,25,17,19,10,4,73,53,32,30.24,29.97,3,3,3,0.00
2013-3-18,32,27,17,32,20,6,97,76,57,30.18,29.50,12,6,12,0.00
2013-3-19,32,25,20,31,16,10,95,68,48,29.85,29.53,6,6,6,0.00
2013-3-20,34,22,14,13,8,3,69,55,42,29.88,29.79,6,6,6,0.00
2013-3-21,32,22,12,20,12,1,79,66,56,29.85,29.76,6,4,6,0.00
2013-3-22,35,28,22,17,14,11,64,54,44,29.97,29.85,3,3,3,0.00
2013-3-23,37,30,24,19,16,13,71,58,46,30.06,29.94,3,3,3,0.00
2013-3-24,36,28,22,23,17,12,79,63,42,30.00,22.68,14,4,14,0.00
2013-3-25,38,32,28,23,19,17,68,59,47,29.88,29.56,2,2,2,0.00
2013-3-26,46,35,30,28,24,21,78,66,46,30.06,29.85,2,2,2,0.00
2013-3-27,54,36,27,28,21,18,78,54,34,30.12,30.03,6,3,6,0.00
2013-3-28,57,39,30,30,19,14,66,46,29,30.21,30.12,10,3,10,0.00
2013-3-29,60,40,28,26,16,9,55,38,24,30.24,30.12,10,2,10,0.00
2013-3-30,65,43,27,27,16,10,52,35,22,30.18,29.85,11,2,11,0.00
2013-3-31,59,44,36,39,26,17,73,51,35,29.85,29.53,12,3,12,0.00
2013-4-1,40,30,22,26,11,4,77,45,31,30.03,29.62,15,5,15,0.00
2013-4-2,45,30,19,15,8,2,69,41,29,30.21,30.00,5,5,5,0.00
2013-4-3,49,31,20,16,7,2,52,37,24,30.36,30.15,5,5,5,0.00
2013-4-4,64,42,25,22,12,6,51,32,18,30.30,29.85,7,5,7,0.00
2013-4-5,54,39,27,22,14,6,62,38,26,30.15,29.85,12,3,12,0.00
2013-4-6,49,38,26,18,14,9,52,38,28,30.18,29.71,16,4,16,0.00
2013-4-7,54,46,33,39,28,18,67,50,32,30.00,29.53,21,4,21,0.00
2013-4-8,55,42,31,53,36,23,96,78,48,30.00,29.62,13,4,13,0.00
2013-4-9,51,42,38,44,40,35,98,91,59,30.06,29.85,12,3,12,0.00
2013-4-10,42,38,34,42,37,34,98,98,98,30.03,29.82,4,4,4,0.00
2013-4-11,35,34,33,35,34,33,98,98,98,29.97,29.62,4,4,4,0.00
2013-4-12,40,36,32,40,34,32,98,94,78,29.74,29.53,4,4,4,0.00
2013-4-13,42,36,33,36,28,19,97,73,50,29.94,29.74,10,5,12,0.00
2013-4-14,45,38,30,31,26,21,82,63,47,30.09,29.88,6,6,6,0.00
2013-4-15,70,54,37,51,39,28,80,59,35,29.94,29.82,6,6,6,0.00
2013-4-16,68,52,42,50,36,23,89,58,31,30.24,29.82,6,6,6,0.00
2013-4-17,68,46,35,42,30,22,98,56,25,30.33,29.97,17,4,17,0.00
2013-4-18,78,56,42,62,53,42,98,91,44,30.00,29.53,18,6,18,0.00
2013-4-19,57,42,31,56,36,23,98,78,53,29.74,29.32,6,6,6,0.00
2013-4-20,40,33,26,27,17,12,82,53,40,30.44,29.71,6,6,6,0.00
2013-4-21,56,37,24,25,17,13,75,46,27,30.59,30.41,12,5,12,0.00
2013-4-22,71,47,31,32,23,14,79,42,22,30.47,30.15,11,3,11,0.00
2013-4-23,73,55,41,51,35,24,93,50,24,30.18,29.79,15,5,15,0.00
2013-4-24,52,37,32,50,36,28,98,96,74,30.12,29.74,8,8,8,0.00
2013-4-25,49,39,30,42,27,18,87,65,40,30.33,30.06,8,8,8,0.00
2013-4-26,67,47,31,31,25,19,70,45,24,30.44,30.30,9,4,9,0.00
2013-4-27,79,56,38,38,29,23,70,40,20,30.36,30.09,12,3,12,0.00
2013-4-28,60,52,47,50,38,0,95,63,37,30.12,29.85,13,3,13,0.00
2013-4-29,73,58,51,55,48,42,97,73,40,29.94,29.82,7,2,7,0.00
2013-4-30,69,60,52,60,49,45,98,70,44,30.09,29.94,13,3,13,0.00
2013-5-1,90,68,53,53,47,40,85,52,22,30.30,30.06,12,3,12,0.00
2013-5-2,89,67,54,46,40,33,61,40,21,30.33,30.15,9,4,10,0.00
2013-5-3,81,66,55,46,35,28,42,32,22,30.21,30.09,13,4,13,0.00
2013-5-4,78,63,53,41,32,24,54,33,21,30.18,30.09,13,4,13,0.00
2013-5-5,80,62,50,39,30,24,53,31,17,30.15,30.03,13,3,13,0.00
2013-5-6,84,62,47,40,32,26,48,33,20,30.12,30.00,10,3,10,0.00
2013-5-7,84,65,50,45,36,27,50,35,23,30.09,29.97,12,3,12,0.00
2013-5-8,89,67,52,43,36,28,49,33,19,30.09,29.94,8,2,8,0.00
2013-5-9,90,69,53,54,40,33,70,39,18,30.03,29.91,6,1,6,0.00
2013-5-10,64,52,39,58,46,35,93,81,34,29.94,29.76,8,2,8,0.00
2013-5-11,69,46,36,48,38,28,97,76,35,29.88,29.71,13,2,13,0.00
2013-5-12,53,40,32,30,25,17,82,57,37,30.09,29.85,16,3,16,0.00
2013-5-13,61,42,29,28,20,17,66,44,27,30.18,30.09,8,2,8,0.00
2013-5-14,71,53,40,40,30,18,64,43,29,30.12,29.74,11,3,11,0.00
2013-5-15,90,68,50,57,43,34,88,47,20,29.82,29.62,12,3,12,0.00
2013-5-16,90,66,51,46,35,27,54,34,18,30.09,29.82,8,1,8,0.00
2013-5-17,73,58,46,41,34,27,57,41,27,30.18,30.09,8,2,8,0.00
2013-5-18,86,65,53,42,36,31,49,35,20,30.21,30.03,9,2,9,0.00
2013-5-19,92,71,55,54,45,34,60,41,27,30.09,29.91,6,1,6,0.00
2013-5-20,92,74,63,65,56,46,80,57,32,30.03,29.79,12,1,12,0.00
2013-5-21,87,73,67,63,55,49,80,56,33,29.88,29.74,6,1,6,0.00
2013-5-22,76,67,61,64,58,50,91,74,44,29.82,29.62,10,1,10,0.00
2013-5-23,61,50,40,58,48,38,97,94,88,30.21,29.74,7,1,7,0.00
2013-5-24,56,43,36,39,32,27,97,67,39,30.39,30.15,8,2,8,0.00
2013-5-25,71,49,35,38,31,25,83,54,29,30.41,30.30,6,1,6,0.00
2013-5-26,74,53,39,36,29,23,68,43,24,30.39,30.24,6,1,6,0.00
2013-5-27,66,52,44,47,32,21,92,50,27,30.33,30.03,9,2,9,0.00
2013-5-28,68,58,50,67,57,0,98,97,92,30.09,29.82,7,2,7,0.00
2013-5-29,85,69,61,72,63,55,98,84,43,30.06,29.79,8,1,8,0.00
2013-5-30,90,70,63,70,64,59,98,82,40,30.12,30.00,10,2,10,0.00
2013-5-31,79,70,66,70,65,61,98,85,56,30.06,29.88,8,2,8,0.00
2013-6-1,80,68,63,70,62,57,98,84,59,29.94,29.74,2,2,2,0.00
2013-6-2,71,62,51,61,52,38,88,72,50,30.06,29.71,2,2,2,0.00
2013-6-3,74,54,40,43,36,33,85,55,31,30.15,30.03,2,2,2,0.00
2013-6-4,79,57,46,45,38,32,75,50,30,30.27,30.15,4,1,4,0.00
2013-6-5,70,59,48,41,34,27,48,40,33,30.24,30.03,0,0,0,0.00
2013-6-6,67,57,52,48,41,34,72,54,44,30.06,29.88,0,0,0,0.00
2013-6-7,59,54,49,50,47,43,86,79,68,29.97,29.91,0,0,0,0.00
2013-6-8,69,60,54,50,48,45,84,66,45,30.12,29.94,5,0,5,0.00
2013-6-9,72,64,56,53,47,41,74,56,43,30.18,30.03,6,2,7,0.00
2013-6-10,67,63,58,66,60,41,98,92,43,30.03,29.74,6,0,6,0.00
2013-6-11,78,67,61,67,62,59,98,85,58,29.94,29.82,4,1,4,0.00
2013-6-12,71,66,60,65,62,58,96,87,73,29.97,29.71,5,1,5,0.00
2013-6-13,79,65,59,64,56,47,98,76,42,30.03,29.65,6,1,6,0.00
2013-6-14,81,63,56,52,46,39,80,57,34,30.15,30.00,6,1,6,0.00
2013-6-15,74,64,55,59,54,41,88,71,48,30.15,29.97,0,0,0,0.00
2013-6-16,80,67,62,70,59,50,98,79,50,29.97,29.82,0,0,0,0.00
2013-6-17,92,67,58,57,52,47,83,62,29,30.00,29.85,0,0,0,0.00
2013-6-18,75,60,52,53,44,32,86,59,31,30.15,29.97,6,1,6,0.00
2013-6-19,84,60,48,48,39,33,70,47,26,30.24,30.12,6,0,6,0.00
2013-6-20,90,66,53,52,46,41,72,49,24,30.30,30.21,6,1,6,0.00
2013-6-21,86,70,59,62,52,43,71,52,39,30.33,30.09,8,1,8,0.00
2013-6-22,96,75,67,66,60,52,81,61,36,30.18,30.03,6,0,6,0.00
2013-6-23,98,77,68,68,62,56,92,65,29,30.15,30.03,7,1,7,0.00
2013-6-24,92,75,66,67,63,57,98,68,39,30.15,29.97,8,1,8,0.00
2013-6-25,73,68,64,72,67,64,98,97,94,30.06,29.85,4,1,4,0.00
2013-6-26,88,71,63,70,65,60,98,83,47,29.94,29.79,5,1,5,0.00
2013-6-27,80,69,63,75,67,62,98,95,70,29.82,29.68,5,1,5,0.00
2013-6-28,71,65,62,71,64,62,98,98,90,29.74,29.56,5,0,5,0.00
2013-6-29,69,64,62,66,60,55,98,89,69,29.82,29.62,5,0,5,0.00
2013-6-30,80,66,60,62,54,38,92,67,41,30.03,29.79,4,0,4,0.00
2013-7-1,65,60,55,56,48,38,91,65,45,30.12,30.03,4,0,4,0.00
2013-7-2,76,63,55,60,56,53,97,81,55,30.15,30.09,57,0,57,0.00
2013-7-3,88,68,59,66,59,54,95,74,39,30.18,30.09,6,1,6,0.00
2013-7-4,78,71,66,66,61,55,91,72,53,30.21,30.09,6,1,6,0.00
2013-7-5,85,71,65,62,58,52,84,63,41,30.21,30.09,3,0,3,0.00
2013-7-6,87,72,66,68,64,60,95,78,45,30.21,30.03,6,0,6,0.00
2013-7-7,76,70,68,72,67,65,98,90,75,30.12,29.97,4,0,4,0.00
2013-7-8,79,70,67,72,68,64,98,91,76,30.12,30.03,5,0,5,0.00
2013-7-9,88,72,68,80,69,64,98,91,65,30.06,29.91,8,0,8,0.00
2013-7-10,87,74,70,75,71,66,98,90,57,29.94,29.82,4,1,4,0.00
2013-7-11,79,68,60,66,52,48,89,57,41,30.15,29.85,5,0,5,0.00
2013-7-12,85,65,54,60,54,50,95,69,39,30.24,30.15,3,0,3,0.00
2013-7-13,89,70,61,62,54,49,89,60,30,30.30,30.21,5,0,5,0.00
2013-7-14,90,74,66,67,62,58,89,68,41,30.36,30.27,0,0,230,0.00
2013-7-15,92,75,69,75,69,64,98,82,52,30.36,30.33,0,0,0,0.00
2013-7-16,92,78,72,80,73,69,98,86,59,30.41,30.30,1,0,1,0.00
2013-7-17,93,79,71,75,71,68,92,79,49,30.39,30.21,2,0,2,0.00
2013-7-18,97,78,71,76,71,67,96,83,42,30.27,30.03,5,0,5,0.00
2013-7-19,95,78,70,74,71,62,98,82,41,30.06,29.76,11,1,11,0.00
2013-7-20,85,71,66,72,64,54,98,81,42,30.03,29.79,3,1,3,0.00
2013-7-21,80,67,59,62,56,51,87,67,46,30.09,29.97,1,1,1,0.00
2013-7-22,82,70,64,66,60,54,87,71,47,30.06,29.79,1,1,1,0.00
2013-7-23,73,66,59,73,63,49,98,90,70,29.94,29.71,6,1,6,0.00
2013-7-24,73,60,53,50,48,45,81,65,44,30.12,29.94,4,0,4,0.00
2013-7-25,81,62,51,54,48,42,85,63,33,30.18,30.09,4,0,4,0.00
2013-7-26,82,66,57,56,52,49,84,63,36,30.18,29.97,6,1,6,0.00
2013-7-27,70,63,54,69,60,53,98,90,72,29.97,29.74,6,0,6,0.00
2013-7-28,65,55,49,58,53,49,98,93,66,30.03,29.85,8,0,8,0.00
2013-7-29,64,58,54,59,55,53,98,91,75,30.24,30.03,4,0,4,0.00
2013-7-30,78,63,54,60,54,48,98,75,43,30.30,30.15,4,0,4,0.00
2013-7-31,66,64,62,66,62,56,98,93,78,30.21,29.91,3,0,3,0.00
2013-8-1,76,64,58,68,61,55,98,91,57,29.97,29.91,6,0,6,0.00
2013-8-2,71,62,54,62,58,52,98,87,63,30.00,29.85,0,0,0,0.00
2013-8-3,78,64,57,61,55,49,97,75,42,30.12,29.94,0,0,0,0.00
2013-8-4,74,60,54,55,50,45,89,70,46,30.21,30.09,0,0,0,0.00
2013-8-5,71,60,54,55,50,45,82,70,49,30.18,30.00,7,0,7,0.00
2013-8-6,73,65,61,67,61,52,98,86,67,30.06,29.91,7,1,7,0.00
2013-8-7,80,68,62,74,66,61,98,91,69,29.97,29.85,6,1,6,0.00
2013-8-8,71,65,61,67,61,56,98,86,61,30.09,29.97,4,1,4,0.00
2013-8-9,81,65,56,60,55,50,94,73,41,30.06,29.97,5,0,5,0.00
2013-8-10,76,65,58,59,54,49,92,71,44,30.18,30.03,4,0,4,0.00
2013-8-11,73,65,60,60,55,50,79,70,59,30.21,30.09,4,0,4,0.00
2013-8-12,67,64,61,66,62,54,98,93,78,30.12,29.85,5,0,5,0.00
2013-8-13,64,58,52,64,52,42,98,80,54,30.09,29.85,6,1,6,0.00
2013-8-14,71,56,48,54,47,43,93,72,48,30.21,30.09,5,0,5,0.00
2013-8-15,72,59,49,52,48,45,91,69,43,30.24,30.12,4,0,4,0.00
2013-8-16,79,63,52,57,50,47,92,67,39,30.24,30.15,4,0,4,0.00
2013-8-17,82,65,56,55,50,47,79,60,34,30.33,30.24,4,0,4,0.00
2013-8-18,83,66,58,62,54,49,90,67,37,30.30,30.15,4,0,4,0.00
2013-8-19,82,67,59,60,53,50,79,63,40,30.18,30.06,5,0,5,0.00
2013-8-20,83,69,60,64,58,53,83,69,48,30.21,30.09,5,0,5,0.00
2013-8-21,86,72,64,66,62,59,90,72,45,30.18,30.03,8,1,8,0.00
2013-8-22,79,72,67,64,62,59,85,74,54,30.12,29.97,5,0,5,0.00
2013-8-23,81,66,58,62,53,48,90,65,37,30.27,30.12,4,0,4,0.00
2013-8-24,81,66,34,60,53,0,90,64,37,30.36,30.27,3,0,3,0.00
2013-8-25,86,70,60,61,56,51,90,64,39,30.36,30.15,6,1,6,0.00
2013-8-26,81,73,68,68,62,56,79,68,58,30.21,29.97,6,1,6,0.00
2013-8-27,76,72,67,75,70,65,98,93,79,30.06,29.85,5,0,7,0.00
2013-8-28,76,72,67,73,70,66,98,95,85,30.09,29.85,6,0,6,0.00
2013-8-29,84,71,64,72,66,63,98,85,59,30.12,30.06,0,0,0,0.00
2013-8-30,84,73,66,70,66,63,92,80,56,30.09,29.79,8,1,8,0.00
2013-8-31,75,70,66,70,65,60,97,85,66,29.91,29.79,3,0,3,0.00
2013-9-1,73,68,63,68,64,61,95,89,77,29.94,29.74,6,0,6,0.00
2013-9-2,71,65,58,67,58,48,97,81,62,29.97,29.76,6,1,6,0.00
2013-9-3,72,61,55,53,50,47,85,69,46,30.06,29.97,6,1,6,0.00
2013-9-4,77,64,54,60,54,49,94,70,44,30.12,30.03,6,1,6,0.00
2013-9-5,69,59,52,57,46,40,83,65,40,30.33,30.09,6,0,6,0.00
2013-9-6,73,58,48,49,44,40,86,61,34,30.33,30.09,5,0,5,0.00
2013-9-7,73,64,56,68,56,44,92,76,61,30.12,29.91,4,0,4,0.00
2013-9-8,71,64,55,65,53,42,92,69,41,30.15,29.97,5,0,5,0.00
2013-9-9,72,63,54,64,56,45,90,79,70,30.15,29.91,7,1,7,0.00
2013-9-10,90,76,68,70,64,54,93,69,36,30.09,29.91,7,1,7,0.00
2013-9-11,88,74,67,67,64,59,98,71,44,30.06,29.97,8,1,8,0.00
2013-9-12,76,64,53,66,58,46,98,83,45,30.03,29.85,6,1,6,0.00
2013-9-13,58,51,43,50,41,33,91,69,48,30.21,30.00,6,1,6,0.00
2013-9-14,66,51,40,47,38,35,91,65,35,30.21,30.09,6,0,6,0.00
2013-9-15,59,53,49,51,46,39,94,77,63,30.18,30.09,3,0,3,0.00
2013-9-16,58,52,43,53,46,35,97,79,50,30.41,30.18,5,0,5,0.00
2013-9-17,63,51,41,51,41,35,94,71,43,30.44,30.24,7,1,7,0.00
2013-9-18,74,60,48,55,47,39,90,65,36,30.30,30.06,7,1,7,0.00
2013-9-19,77,67,59,63,58,50,91,75,56,30.09,29.94,6,1,6,0.00
2013-9-20,76,69,65,70,65,62,97,89,69,29.97,29.74,8,1,8,0.00
2013-9-21,65,60,52,64,54,41,98,84,56,29.88,29.71,6,1,6,0.00
2013-9-22,55,49,44,41,38,34,78,65,51,30.12,29.88,5,0,5,138.56
2013-9-23,55,48,42,43,39,36,90,72,53,30.24,30.12,5,0,5,0.00
2013-9-24,68,53,45,49,42,40,92,69,41,30.21,30.03,4,0,4,0.00
2013-9-25,70,56,48,52,44,39,92,66,36,30.09,29.97,5,0,5,0.00
2013-9-26,75,59,49,57,46,40,94,66,38,30.18,30.03,4,0,4,0.00
2013-9-27,78,61,52,55,48,41,89,65,36,30.30,30.18,4,0,4,0.00
2013-9-28,76,63,55,59,50,40,92,66,34,30.27,30.03,9,1,9,0.00
2013-9-29,61,59,57,59,54,47,98,84,62,30.06,29.97,6,0,6,0.00
2013-9-30,67,58,54,60,53,46,98,83,54,30.06,29.94,6,0,6,138.56
2013-10-1,70,60,53,64,55,49,97,84,64,30.06,29.94,10,1,10,138.56
2013-10-2,78,63,57,59,49,35,94,64,33,30.12,29.97,4,0,4,0.00
2013-10-3,82,65,57,60,53,38,83,65,42,30.12,29.94,8,1,8,0.00
2013-10-4,77,68,64,65,62,59,93,80,57,30.06,29.97,5,0,5,0.00
2013-10-5,68,66,63,68,64,61,98,96,87,30.09,29.88,7,0,7,0.00
2013-10-6,67,63,53,66,62,52,98,96,84,29.88,29.65,14,1,14,0.00
2013-10-7,53,49,44,52,48,43,98,94,80,30.15,29.74,7,1,7,0.00
2013-10-8,72,52,43,52,41,34,98,72,34,30.33,30.15,6,0,6,0.00
2013-10-9,76,56,48,54,43,38,93,65,34,30.39,30.21,7,1,7,0.00
2013-10-10,77,57,50,53,43,34,93,64,29,30.27,30.15,6,0,6,0.00
2013-10-11,78,56,48,48,39,34,82,56,30,30.21,30.09,5,0,5,0.00
2013-10-12,78,62,54,60,49,41,89,65,36,30.15,30.03,5,1,5,0.00
2013-10-13,73,58,48,55,41,32,84,57,31,30.36,30.09,5,1,5,0.00
2013-10-14,68,51,44,42,36,32,85,60,35,30.47,30.27,4,0,4,0.00
2013-10-15,62,54,45,58,47,37,95,79,64,30.30,29.85,8,2,8,0.00
2013-10-16,65,54,50,59,48,38,98,81,46,29.94,29.82,9,1,9,0.00
2013-10-17,51,49,45,49,46,44,97,92,81,29.94,29.74,6,0,6,0.00
2013-10-18,66,49,41,53,40,33,98,75,40,29.94,29.82,9,1,9,0.00
2013-10-19,46,43,39,46,40,36,98,88,72,29.88,29.74,7,1,7,0.00
2013-10-20,54,45,38,46,38,33,98,76,48,29.94,29.82,9,1,9,0.00
2013-10-21,53,48,39,44,38,29,76,67,54,29.85,29.79,10,2,10,0.00
2013-10-22,46,39,32,32,26,22,70,58,43,29.88,29.82,10,1,10,0.00
2013-10-23,49,38,32,34,26,19,88,63,39,29.94,29.79,7,1,7,0.00
2013-10-24,49,36,30,33,25,22,88,66,40,30.18,29.91,9,1,9,0.00
2013-10-25,52,37,31,36,26,21,87,65,41,30.33,30.06,7,1,7,0.00
2013-10-26,48,41,35,33,26,20,82,57,42,30.06,29.71,14,2,14,0.00
2013-10-27,50,38,31,36,28,23,91,69,47,30.06,29.94,8,1,8,0.00
2013-10-28,48,39,34,34,26,22,77,61,50,30.44,30.03,6,1,6,0.00
2013-10-29,45,39,36,28,25,22,68,55,44,30.47,30.24,5,0,5,0.00
2013-10-30,69,48,37,46,35,22,88,62,36,30.24,29.94,10,1,10,0.00
2013-10-31,59,57,50,59,56,42,98,97,74,29.97,29.17,8,2,10,0.00
2013-11-1,58,48,44,58,41,34,98,79,59,29.65,29.12,11,2,13,0.00
2013-11-2,44,41,32,43,39,31,97,93,84,30.12,29.62,8,0,8,0.00
2013-11-3,49,34,30,44,30,24,98,83,58,30.47,30.12,6,0,6,0.00
2013-11-4,49,38,30,30,25,0,88,62,38,30.50,30.30,13,3,13,0.00
2013-11-5,56,48,40,42,37,28,76,66,51,30.36,30.15,6,2,6,0.00
2013-11-6,52,49,40,52,44,34,98,83,52,30.18,29.74,10,3,10,0.00
2013-11-7,41,37,32,39,28,20,98,73,47,30.12,29.97,10,2,10,0.00
2013-11-8,46,34,27,31,22,16,86,65,45,30.27,30.09,6,1,6,0.00
2013-11-9,57,44,34,32,27,0,65,52,38,30.21,29.76,13,3,13,0.00
2013-11-10,46,39,31,30,23,18,66,52,43,30.27,29.85,12,3,12,0.00
2013-11-11,40,34,25,35,25,15,88,72,58,30.30,30.00,8,3,8,0.00
2013-11-12,35,26,20,20,12,8,72,56,43,30.53,30.27,11,3,11,0.00
2013-11-13,44,27,16,23,12,8,83,53,36,30.53,30.09,12,2,12,0.00
2013-11-14,52,38,29,24,15,9,45,39,30,30.15,29.91,11,3,11,0.00
2013-11-15,54,42,35,25,18,13,46,38,30,30.06,29.94,7,2,7,0.00
2013-11-16,54,44,34,49,34,17,82,68,46,30.09,29.76,12,3,12,0.00
2013-11-17,126,56,46,88,53,36,98,91,32,29.76,29.20,27,5,27,0.00
2013-11-19,31,29,28,13,11,10,54,47,42,30.39,30.36,6,2,6,0.00
2013-11-20,42,37,34,23,20,18,57,49,40,30.33,30.21,11,4,11,0.00
2013-11-21,47,42,37,40,30,20,92,63,50,30.27,30.15,10,2,10,0.00
2013-11-22,43,37,25,43,34,20,98,90,71,30.36,30.09,15,2,15,0.00
2013-11-23,31,22,14,22,11,0,88,62,42,30.47,30.21,14,4,14,0.00
2013-11-24,25,17,12,8,3,0,70,54,42,30.56,30.33,10,2,10,0.00
2013-11-25,30,23,16,20,8,1,74,51,39,30.36,29.97,15,3,15,0.00
2013-11-26,31,29,27,24,22,18,82,77,70,30.06,29.85,8,2,8,0.00
2013-11-27,28,21,15,21,8,0,78,57,44,30.12,29.85,13,4,13,23.04
2013-11-28,26,19,13,16,10,1,74,65,56,30.36,30.09,8,1,8,0.00
2013-11-29,35,23,15,24,13,10,81,66,51,30.59,30.33,5,1,5,0.00
2013-11-30,41,32,23,22,18,15,71,57,43,30.50,30.03,9,3,10,0.00
2013-12-1,41,34,31,28,24,18,82,65,54,30.06,29.94,7,2,7,0.00
2013-12-2,37,31,27,26,19,11,82,63,41,29.97,29.85,7,1,7,0.00
2013-12-3,35,32,26,34,25,15,96,76,59,29.88,29.79,10,4,10,0.00
2013-12-4,52,43,35,50,41,33,98,92,80,29.85,29.59,16,3,16,23.04
2013-12-5,55,40,28,53,29,14,95,65,46,30.09,29.56,15,4,15,0.00
2013-12-6,29,24,17,14,9,4,57,53,48,30.33,30.06,11,3,11,0.00
2013-12-7,25,17,10,6,2,-4,58,50,43,30.53,30.33,8,2,10,23.04
2013-12-8,25,17,9,20,4,-6,81,56,46,30.53,29.88,13,2,13,0.00
2013-12-9,28,24,17,23,17,3,87,75,55,30.00,29.76,14,4,14,0.00
2013-12-10,20,16,8,11,2,-5,69,55,43,30.09,29.82,18,3,18,0.00
2013-12-11,23,15,4,11,4,-10,71,60,49,30.33,30.06,10,3,10,0.00
2013-12-12,19,11,0,8,-3,-14,64,52,43,30.33,30.03,14,3,14,0.00
2013-12-13,26,22,18,16,11,6,72,63,53,30.21,30.00,9,2,9,0.00
2013-12-14,20,17,15,15,9,2,80,71,54,30.21,29.71,13,4,13,0.00
2013-12-15,24,17,8,18,9,-3,82,71,56,29.91,29.68,12,2,12,0.00
2013-12-16,24,12,5,7,-2,-6,65,53,46,30.09,29.88,8,2,8,0.00
2013-12-17,29,21,13,20,13,-2,83,73,50,29.94,29.74,8,2,8,0.00
2013-12-18,28,24,19,22,15,7,87,71,52,30.03,29.76,12,2,12,0.00
2013-12-19,40,31,24,28,20,8,82,65,52,29.91,29.74,9,2,9,0.00
2013-12-20,34,32,32,32,31,27,98,94,82,29.85,29.65,5,1,57,0.00
2013-12-21,32,32,31,32,31,30,98,98,97,29.82,29.62,3,0,3,0.00
2013-12-22,32,32,31,31,31,30,98,98,98,29.68,29.50,0,0,0,0.00
2013-12-27,34,32,31,30,29,28,92,87,79,30.15,29.97,0,0,0,0.00
2013-12-28,45,36,31,35,28,25,88,74,53,30.06,29.82,0,0,0,0.00
2013-12-29,40,32,18,26,21,7,83,66,52,29.94,29.62,0,0,0,0.00
2013-12-30,20,16,13,7,2,-1,63,53,45,30.21,29.91,10,1,10,0.00
2013-12-31,18,14,10,6,3,-1,69,59,46,30.21,29.94,10,3,10,0.00
2014-1-1,14,11,8,1,-1,-4,58,58,58,30.30,30.15,9,2,9,0.00
2014-1-2,14,9,-1,2,-3,-13,59,57,56,30.18,29.97,16,5,16,0.00